sensor_id;sensor_type;location;lat;lon;timestamp;P1;durP1;ratioP1;P2;durP2;ratioP2
4462;SDS011;2244;50.200;8.220;2024-03-25T00:01:05;26.53;;;3.50;;
4462;SDS011;2244;50.200;8.220;2024-03-25T00:03:33;26.80;;;2.97;;
4462;SDS011;2244;50.200;8.220;2024-03-25T00:06:00;26.90;;;2.63;;
4462;SDS011;2244;50.200;8.220;2024-03-25T00:08:28;26.30;;;3.80;;
4462;SDS011;2244;50.200;8.220;2024-03-25T00:10:55;26.73;;;2.90;;
4462;SDS011;2244;50.200;8.220;2024-03-25T00:13:23;25.10;;;3.20;;
4462;SDS011;2244;50.200;8.220;2024-03-25T00:15:50;27.60;;;3.93;;
4462;SDS011;2244;50.200;8.220;2024-03-25T00:18:17;25.00;;;3.20;;
4462;SDS011;2244;50.200;8.220;2024-03-25T00:20:45;23.77;;;2.73;;
4462;SDS011;2244;50.200;8.220;2024-03-25T00:23:12;24.17;;;3.10;;
4462;SDS011;2244;50.200;8.220;2024-03-25T00:25:41;21.37;;;2.30;;
4462;SDS011;2244;50.200;8.220;2024-03-25T00:28:08;27.97;;;3.43;;
4462;SDS011;2244;50.200;8.220;2024-03-25T00:30:36;26.50;;;2.70;;
4462;SDS011;2244;50.200;8.220;2024-03-25T00:33:03;24.07;;;2.70;;
4462;SDS011;2244;50.200;8.220;2024-03-25T00:35:33;28.50;;;2.90;;
4462;SDS011;2244;50.200;8.220;2024-03-25T00:38:00;22.23;;;2.80;;
4462;SDS011;2244;50.200;8.220;2024-03-25T00:40:28;29.00;;;3.10;;
4462;SDS011;2244;50.200;8.220;2024-03-25T00:42:55;26.40;;;3.50;;
4462;SDS011;2244;50.200;8.220;2024-03-25T00:45:23;24.87;;;3.13;;
4462;SDS011;2244;50.200;8.220;2024-03-25T00:47:52;24.67;;;3.30;;
4462;SDS011;2244;50.200;8.220;2024-03-25T00:50:19;23.90;;;2.80;;
4462;SDS011;2244;50.200;8.220;2024-03-25T00:52:47;25.63;;;2.87;;
4462;SDS011;2244;50.200;8.220;2024-03-25T00:55:14;23.87;;;2.93;;
4462;SDS011;2244;50.200;8.220;2024-03-25T00:57:42;22.80;;;2.87;;
4462;SDS011;2244;50.200;8.220;2024-03-25T01:00:10;23.87;;;2.67;;
4462;SDS011;2244;50.200;8.220;2024-03-25T01:02:38;25.67;;;3.13;;
4462;SDS011;2244;50.200;8.220;2024-03-25T01:05:05;27.90;;;2.80;;
4462;SDS011;2244;50.200;8.220;2024-03-25T01:07:33;27.90;;;3.13;;
4462;SDS011;2244;50.200;8.220;2024-03-25T01:10:00;27.07;;;3.07;;
4462;SDS011;2244;50.200;8.220;2024-03-25T01:12:28;26.53;;;3.40;;
4462;SDS011;2244;50.200;8.220;2024-03-25T01:14:55;25.90;;;3.07;;
4462;SDS011;2244;50.200;8.220;2024-03-25T01:17:23;29.17;;;3.20;;
4462;SDS011;2244;50.200;8.220;2024-03-25T01:19:50;25.00;;;3.47;;
4462;SDS011;2244;50.200;8.220;2024-03-25T01:22:18;23.50;;;3.10;;
4462;SDS011;2244;50.200;8.220;2024-03-25T01:24:45;23.53;;;2.70;;
4462;SDS011;2244;50.200;8.220;2024-03-25T01:27:13;26.43;;;2.90;;
4462;SDS011;2244;50.200;8.220;2024-03-25T01:29:40;29.83;;;3.90;;
4462;SDS011;2244;50.200;8.220;2024-03-25T01:32:07;26.33;;;3.37;;
4462;SDS011;2244;50.200;8.220;2024-03-25T01:34:35;34.87;;;3.27;;
4462;SDS011;2244;50.200;8.220;2024-03-25T01:37:02;25.27;;;3.03;;
4462;SDS011;2244;50.200;8.220;2024-03-25T01:39:30;28.47;;;2.80;;
4462;SDS011;2244;50.200;8.220;2024-03-25T01:41:57;25.50;;;3.17;;
4462;SDS011;2244;50.200;8.220;2024-03-25T01:44:25;24.00;;;3.10;;
4462;SDS011;2244;50.200;8.220;2024-03-25T01:46:52;25.07;;;3.57;;
4462;SDS011;2244;50.200;8.220;2024-03-25T01:49:21;27.73;;;3.10;;
4462;SDS011;2244;50.200;8.220;2024-03-25T01:51:48;28.33;;;3.50;;
4462;SDS011;2244;50.200;8.220;2024-03-25T01:54:16;23.50;;;3.30;;
4462;SDS011;2244;50.200;8.220;2024-03-25T01:56:43;25.37;;;3.70;;
4462;SDS011;2244;50.200;8.220;2024-03-25T01:59:15;24.10;;;3.40;;
4462;SDS011;2244;50.200;8.220;2024-03-25T02:01:44;24.17;;;2.80;;
4462;SDS011;2244;50.200;8.220;2024-03-25T02:04:13;23.87;;;2.90;;
4462;SDS011;2244;50.200;8.220;2024-03-25T02:06:40;25.60;;;3.40;;
4462;SDS011;2244;50.200;8.220;2024-03-25T02:09:09;24.17;;;2.77;;
4462;SDS011;2244;50.200;8.220;2024-03-25T02:11:37;24.97;;;3.13;;
4462;SDS011;2244;50.200;8.220;2024-03-25T02:14:05;27.63;;;3.37;;
4462;SDS011;2244;50.200;8.220;2024-03-25T02:16:33;27.50;;;3.27;;
4462;SDS011;2244;50.200;8.220;2024-03-25T02:19:00;24.70;;;2.93;;
4462;SDS011;2244;50.200;8.220;2024-03-25T02:21:28;25.27;;;4.13;;
4462;SDS011;2244;50.200;8.220;2024-03-25T02:23:57;30.17;;;3.70;;
4462;SDS011;2244;50.200;8.220;2024-03-25T02:26:26;25.07;;;3.43;;
4462;SDS011;2244;50.200;8.220;2024-03-25T02:28:54;29.77;;;4.00;;
4462;SDS011;2244;50.200;8.220;2024-03-25T02:31:22;30.67;;;3.37;;
4462;SDS011;2244;50.200;8.220;2024-03-25T02:33:49;24.80;;;3.20;;
4462;SDS011;2244;50.200;8.220;2024-03-25T02:36:17;25.13;;;3.40;;
4462;SDS011;2244;50.200;8.220;2024-03-25T02:38:44;22.87;;;2.60;;
4462;SDS011;2244;50.200;8.220;2024-03-25T02:41:12;24.73;;;3.00;;
4462;SDS011;2244;50.200;8.220;2024-03-25T02:43:39;29.10;;;3.30;;
4462;SDS011;2244;50.200;8.220;2024-03-25T02:46:07;28.70;;;3.30;;
4462;SDS011;2244;50.200;8.220;2024-03-25T02:48:34;28.90;;;3.00;;
4462;SDS011;2244;50.200;8.220;2024-03-25T02:51:01;24.43;;;2.73;;
4462;SDS011;2244;50.200;8.220;2024-03-25T02:53:29;25.70;;;3.00;;
4462;SDS011;2244;50.200;8.220;2024-03-25T02:55:57;27.23;;;3.13;;
4462;SDS011;2244;50.200;8.220;2024-03-25T02:58:24;25.53;;;3.37;;
4462;SDS011;2244;50.200;8.220;2024-03-25T03:00:51;28.77;;;2.73;;
4462;SDS011;2244;50.200;8.220;2024-03-25T03:03:19;24.00;;;2.90;;
4462;SDS011;2244;50.200;8.220;2024-03-25T03:05:46;25.83;;;2.90;;
4462;SDS011;2244;50.200;8.220;2024-03-25T03:08:14;24.70;;;3.40;;
4462;SDS011;2244;50.200;8.220;2024-03-25T03:10:41;24.37;;;2.90;;
4462;SDS011;2244;50.200;8.220;2024-03-25T03:13:09;25.70;;;3.50;;
4462;SDS011;2244;50.200;8.220;2024-03-25T03:15:36;25.90;;;2.73;;
4462;SDS011;2244;50.200;8.220;2024-03-25T03:18:04;24.13;;;2.60;;
4462;SDS011;2244;50.200;8.220;2024-03-25T03:20:31;24.17;;;2.87;;
4462;SDS011;2244;50.200;8.220;2024-03-25T03:22:59;30.10;;;3.67;;
4462;SDS011;2244;50.200;8.220;2024-03-25T03:25:26;27.47;;;3.40;;
4462;SDS011;2244;50.200;8.220;2024-03-25T03:27:56;23.20;;;3.00;;
4462;SDS011;2244;50.200;8.220;2024-03-25T03:30:23;24.80;;;3.20;;
4462;SDS011;2244;50.200;8.220;2024-03-25T03:32:51;25.40;;;3.27;;
4462;SDS011;2244;50.200;8.220;2024-03-25T03:35:18;28.43;;;3.47;;
4462;SDS011;2244;50.200;8.220;2024-03-25T03:37:45;27.80;;;3.87;;
4462;SDS011;2244;50.200;8.220;2024-03-25T03:40:13;32.63;;;3.33;;
4462;SDS011;2244;50.200;8.220;2024-03-25T03:42:41;28.73;;;4.17;;
4462;SDS011;2244;50.200;8.220;2024-03-25T03:45:08;24.13;;;2.90;;
4462;SDS011;2244;50.200;8.220;2024-03-25T03:47:36;27.63;;;3.57;;
4462;SDS011;2244;50.200;8.220;2024-03-25T03:50:03;29.13;;;4.00;;
4462;SDS011;2244;50.200;8.220;2024-03-25T03:52:31;31.90;;;3.77;;
4462;SDS011;2244;50.200;8.220;2024-03-25T03:54:58;29.57;;;3.77;;
4462;SDS011;2244;50.200;8.220;2024-03-25T03:57:26;31.80;;;3.87;;
4462;SDS011;2244;50.200;8.220;2024-03-25T03:59:53;35.43;;;4.30;;
4462;SDS011;2244;50.200;8.220;2024-03-25T04:02:21;26.87;;;3.70;;
4462;SDS011;2244;50.200;8.220;2024-03-25T04:04:48;29.73;;;3.43;;
4462;SDS011;2244;50.200;8.220;2024-03-25T04:07:16;34.83;;;4.00;;
4462;SDS011;2244;50.200;8.220;2024-03-25T04:09:44;27.77;;;3.53;;
4462;SDS011;2244;50.200;8.220;2024-03-25T04:12:11;25.40;;;3.03;;
4462;SDS011;2244;50.200;8.220;2024-03-25T04:14:39;32.07;;;3.83;;
4462;SDS011;2244;50.200;8.220;2024-03-25T04:17:06;27.77;;;3.60;;
4462;SDS011;2244;50.200;8.220;2024-03-25T04:19:34;30.63;;;3.50;;
4462;SDS011;2244;50.200;8.220;2024-03-25T04:22:01;29.73;;;4.13;;
4462;SDS011;2244;50.200;8.220;2024-03-25T04:24:29;24.50;;;3.00;;
4462;SDS011;2244;50.200;8.220;2024-03-25T04:26:57;29.20;;;3.70;;
4462;SDS011;2244;50.200;8.220;2024-03-25T04:29:24;29.63;;;3.70;;
4462;SDS011;2244;50.200;8.220;2024-03-25T04:31:52;28.30;;;4.00;;
4462;SDS011;2244;50.200;8.220;2024-03-25T04:34:19;30.80;;;3.37;;
4462;SDS011;2244;50.200;8.220;2024-03-25T04:36:47;30.10;;;4.10;;
4462;SDS011;2244;50.200;8.220;2024-03-25T04:39:14;27.27;;;3.20;;
4462;SDS011;2244;50.200;8.220;2024-03-25T04:41:42;28.87;;;3.90;;
4462;SDS011;2244;50.200;8.220;2024-03-25T04:44:09;27.23;;;3.37;;
4462;SDS011;2244;50.200;8.220;2024-03-25T04:46:37;25.43;;;3.70;;
4462;SDS011;2244;50.200;8.220;2024-03-25T04:49:04;32.03;;;3.00;;
4462;SDS011;2244;50.200;8.220;2024-03-25T04:51:32;24.93;;;3.50;;
4462;SDS011;2244;50.200;8.220;2024-03-25T04:54:00;32.23;;;4.20;;
4462;SDS011;2244;50.200;8.220;2024-03-25T04:56:27;32.77;;;4.23;;
4462;SDS011;2244;50.200;8.220;2024-03-25T04:58:54;26.97;;;3.80;;
4462;SDS011;2244;50.200;8.220;2024-03-25T05:01:24;31.73;;;4.30;;
4462;SDS011;2244;50.200;8.220;2024-03-25T05:03:51;27.17;;;3.27;;
4462;SDS011;2244;50.200;8.220;2024-03-25T05:06:18;31.20;;;4.00;;
4462;SDS011;2244;50.200;8.220;2024-03-25T05:08:46;31.97;;;5.23;;
4462;SDS011;2244;50.200;8.220;2024-03-25T05:11:13;28.00;;;3.90;;
4462;SDS011;2244;50.200;8.220;2024-03-25T05:13:41;29.77;;;4.00;;
4462;SDS011;2244;50.200;8.220;2024-03-25T05:16:08;34.00;;;4.37;;
4462;SDS011;2244;50.200;8.220;2024-03-25T05:18:36;27.93;;;4.37;;
4462;SDS011;2244;50.200;8.220;2024-03-25T05:21:03;24.33;;;3.20;;
4462;SDS011;2244;50.200;8.220;2024-03-25T05:23:31;28.40;;;3.50;;
4462;SDS011;2244;50.200;8.220;2024-03-25T05:25:58;31.27;;;3.80;;
4462;SDS011;2244;50.200;8.220;2024-03-25T05:28:25;30.97;;;3.70;;
4462;SDS011;2244;50.200;8.220;2024-03-25T05:30:53;32.43;;;4.40;;
4462;SDS011;2244;50.200;8.220;2024-03-25T05:33:20;33.83;;;3.90;;
4462;SDS011;2244;50.200;8.220;2024-03-25T05:35:48;27.13;;;3.80;;
4462;SDS011;2244;50.200;8.220;2024-03-25T05:38:15;28.27;;;3.67;;
4462;SDS011;2244;50.200;8.220;2024-03-25T05:40:42;34.83;;;4.93;;
4462;SDS011;2244;50.200;8.220;2024-03-25T05:43:12;29.10;;;4.50;;
4462;SDS011;2244;50.200;8.220;2024-03-25T05:45:49;29.07;;;4.13;;
4462;SDS011;2244;50.200;8.220;2024-03-25T05:48:11;26.13;;;3.77;;
4462;SDS011;2244;50.200;8.220;2024-03-25T05:50:38;30.43;;;3.93;;
4462;SDS011;2244;50.200;8.220;2024-03-25T05:53:06;29.93;;;4.90;;
4462;SDS011;2244;50.200;8.220;2024-03-25T05:55:35;26.07;;;4.50;;
4462;SDS011;2244;50.200;8.220;2024-03-25T05:58:02;30.23;;;4.40;;
4462;SDS011;2244;50.200;8.220;2024-03-25T06:00:30;23.83;;;3.07;;
4462;SDS011;2244;50.200;8.220;2024-03-25T06:02:57;25.77;;;3.30;;
4462;SDS011;2244;50.200;8.220;2024-03-25T06:05:25;23.90;;;3.43;;
4462;SDS011;2244;50.200;8.220;2024-03-25T06:07:52;32.43;;;4.07;;
4462;SDS011;2244;50.200;8.220;2024-03-25T06:10:20;32.93;;;3.80;;
4462;SDS011;2244;50.200;8.220;2024-03-25T06:12:47;27.97;;;3.50;;
4462;SDS011;2244;50.200;8.220;2024-03-25T06:15:15;27.27;;;3.50;;
4462;SDS011;2244;50.200;8.220;2024-03-25T06:17:42;28.10;;;3.70;;
4462;SDS011;2244;50.200;8.220;2024-03-25T06:20:10;24.77;;;3.43;;
4462;SDS011;2244;50.200;8.220;2024-03-25T06:22:38;26.70;;;3.40;;
4462;SDS011;2244;50.200;8.220;2024-03-25T06:25:05;32.37;;;4.20;;
4462;SDS011;2244;50.200;8.220;2024-03-25T06:27:33;25.53;;;3.10;;
4462;SDS011;2244;50.200;8.220;2024-03-25T06:30:01;34.47;;;3.90;;
4462;SDS011;2244;50.200;8.220;2024-03-25T06:32:46;31.20;;;3.93;;
4462;SDS011;2244;50.200;8.220;2024-03-25T06:35:32;26.63;;;3.87;;
4462;SDS011;2244;50.200;8.220;2024-03-25T06:37:59;24.10;;;4.07;;
4462;SDS011;2244;50.200;8.220;2024-03-25T06:40:27;31.40;;;3.80;;
4462;SDS011;2244;50.200;8.220;2024-03-25T06:42:55;29.17;;;4.10;;
4462;SDS011;2244;50.200;8.220;2024-03-25T06:45:22;30.33;;;3.80;;
4462;SDS011;2244;50.200;8.220;2024-03-25T06:47:49;32.07;;;3.60;;
4462;SDS011;2244;50.200;8.220;2024-03-25T06:50:17;24.80;;;3.10;;
4462;SDS011;2244;50.200;8.220;2024-03-25T06:52:44;27.60;;;3.87;;
4462;SDS011;2244;50.200;8.220;2024-03-25T06:55:12;32.43;;;3.93;;
4462;SDS011;2244;50.200;8.220;2024-03-25T06:57:39;32.27;;;4.07;;
4462;SDS011;2244;50.200;8.220;2024-03-25T07:00:07;29.10;;;3.87;;
4462;SDS011;2244;50.200;8.220;2024-03-25T07:02:36;28.97;;;3.57;;
4462;SDS011;2244;50.200;8.220;2024-03-25T07:05:03;29.83;;;4.20;;
4462;SDS011;2244;50.200;8.220;2024-03-25T07:07:31;25.00;;;3.47;;
4462;SDS011;2244;50.200;8.220;2024-03-25T07:09:58;37.67;;;4.70;;
4462;SDS011;2244;50.200;8.220;2024-03-25T07:12:26;34.07;;;4.07;;
4462;SDS011;2244;50.200;8.220;2024-03-25T07:14:53;33.83;;;4.30;;
4462;SDS011;2244;50.200;8.220;2024-03-25T07:17:20;33.77;;;3.23;;
4462;SDS011;2244;50.200;8.220;2024-03-25T07:19:48;30.53;;;4.10;;
4462;SDS011;2244;50.200;8.220;2024-03-25T07:22:15;29.57;;;3.53;;
4462;SDS011;2244;50.200;8.220;2024-03-25T07:24:44;27.03;;;3.10;;
4462;SDS011;2244;50.200;8.220;2024-03-25T07:27:11;30.70;;;3.50;;
4462;SDS011;2244;50.200;8.220;2024-03-25T07:29:39;26.60;;;3.27;;
4462;SDS011;2244;50.200;8.220;2024-03-25T07:32:06;31.70;;;3.40;;
4462;SDS011;2244;50.200;8.220;2024-03-25T07:34:34;32.33;;;3.40;;
4462;SDS011;2244;50.200;8.220;2024-03-25T07:37:02;27.70;;;3.00;;
4462;SDS011;2244;50.200;8.220;2024-03-25T07:39:29;31.00;;;3.43;;
4462;SDS011;2244;50.200;8.220;2024-03-25T07:41:57;24.50;;;3.30;;
4462;SDS011;2244;50.200;8.220;2024-03-25T07:44:25;29.57;;;4.07;;
4462;SDS011;2244;50.200;8.220;2024-03-25T07:46:53;30.00;;;3.50;;
4462;SDS011;2244;50.200;8.220;2024-03-25T07:49:21;25.23;;;3.10;;
4462;SDS011;2244;50.200;8.220;2024-03-25T07:51:49;27.23;;;3.77;;
4462;SDS011;2244;50.200;8.220;2024-03-25T07:54:16;36.17;;;3.23;;
4462;SDS011;2244;50.200;8.220;2024-03-25T07:56:44;32.77;;;4.10;;
4462;SDS011;2244;50.200;8.220;2024-03-25T07:59:11;29.70;;;3.50;;
4462;SDS011;2244;50.200;8.220;2024-03-25T08:01:39;29.70;;;3.00;;
4462;SDS011;2244;50.200;8.220;2024-03-25T08:04:06;31.37;;;3.13;;
4462;SDS011;2244;50.200;8.220;2024-03-25T08:06:35;26.60;;;3.17;;
4462;SDS011;2244;50.200;8.220;2024-03-25T08:09:02;25.03;;;2.77;;
4462;SDS011;2244;50.200;8.220;2024-03-25T08:11:32;32.87;;;3.60;;
4462;SDS011;2244;50.200;8.220;2024-03-25T08:13:59;25.93;;;2.93;;
4462;SDS011;2244;50.200;8.220;2024-03-25T08:16:27;24.27;;;2.27;;
4462;SDS011;2244;50.200;8.220;2024-03-25T08:18:54;20.80;;;2.50;;
4462;SDS011;2244;50.200;8.220;2024-03-25T08:21:22;23.40;;;2.83;;
4462;SDS011;2244;50.200;8.220;2024-03-25T08:23:49;26.33;;;2.90;;
4462;SDS011;2244;50.200;8.220;2024-03-25T08:26:18;28.50;;;2.30;;
4462;SDS011;2244;50.200;8.220;2024-03-25T08:28:45;25.33;;;3.23;;
4462;SDS011;2244;50.200;8.220;2024-03-25T08:31:14;25.57;;;2.53;;
4462;SDS011;2244;50.200;8.220;2024-03-25T08:33:42;25.43;;;2.77;;
4462;SDS011;2244;50.200;8.220;2024-03-25T08:36:09;23.97;;;2.60;;
4462;SDS011;2244;50.200;8.220;2024-03-25T08:38:37;26.77;;;3.07;;
4462;SDS011;2244;50.200;8.220;2024-03-25T08:41:04;28.30;;;2.97;;
4462;SDS011;2244;50.200;8.220;2024-03-25T08:43:32;23.03;;;3.00;;
4462;SDS011;2244;50.200;8.220;2024-03-25T08:45:59;23.23;;;2.60;;
4462;SDS011;2244;50.200;8.220;2024-03-25T08:48:27;23.30;;;2.37;;
4462;SDS011;2244;50.200;8.220;2024-03-25T08:50:54;24.43;;;2.90;;
4462;SDS011;2244;50.200;8.220;2024-03-25T08:53:22;21.17;;;2.20;;
4462;SDS011;2244;50.200;8.220;2024-03-25T08:55:49;21.43;;;2.67;;
4462;SDS011;2244;50.200;8.220;2024-03-25T08:58:17;25.03;;;5.07;;
4462;SDS011;2244;50.200;8.220;2024-03-25T09:00:44;22.70;;;2.80;;
4462;SDS011;2244;50.200;8.220;2024-03-25T09:03:12;22.80;;;3.27;;
4462;SDS011;2244;50.200;8.220;2024-03-25T09:05:39;26.40;;;2.83;;
4462;SDS011;2244;50.200;8.220;2024-03-25T09:08:07;21.70;;;2.63;;
4462;SDS011;2244;50.200;8.220;2024-03-25T09:10:36;24.33;;;2.63;;
4462;SDS011;2244;50.200;8.220;2024-03-25T09:13:22;25.83;;;3.13;;
4462;SDS011;2244;50.200;8.220;2024-03-25T09:15:52;21.97;;;2.60;;
4462;SDS011;2244;50.200;8.220;2024-03-25T09:18:20;26.67;;;3.00;;
4462;SDS011;2244;50.200;8.220;2024-03-25T09:20:47;25.40;;;2.60;;
4462;SDS011;2244;50.200;8.220;2024-03-25T09:23:15;23.97;;;2.80;;
4462;SDS011;2244;50.200;8.220;2024-03-25T09:26:01;24.80;;;2.30;;
4462;SDS011;2244;50.200;8.220;2024-03-25T09:28:15;22.83;;;2.70;;
4462;SDS011;2244;50.200;8.220;2024-03-25T09:30:42;24.23;;;2.60;;
4462;SDS011;2244;50.200;8.220;2024-03-25T09:33:10;26.73;;;3.10;;
4462;SDS011;2244;50.200;8.220;2024-03-25T09:35:37;23.90;;;2.20;;
4462;SDS011;2244;50.200;8.220;2024-03-25T09:38:04;22.37;;;2.20;;
4462;SDS011;2244;50.200;8.220;2024-03-25T09:40:33;22.50;;;2.17;;
4462;SDS011;2244;50.200;8.220;2024-03-25T09:43:02;23.70;;;2.10;;
4462;SDS011;2244;50.200;8.220;2024-03-25T09:45:29;26.20;;;2.77;;
4462;SDS011;2244;50.200;8.220;2024-03-25T09:47:57;22.60;;;2.30;;
4462;SDS011;2244;50.200;8.220;2024-03-25T09:50:25;20.90;;;2.77;;
4462;SDS011;2244;50.200;8.220;2024-03-25T09:52:52;21.43;;;2.50;;
4462;SDS011;2244;50.200;8.220;2024-03-25T09:55:19;20.80;;;2.20;;
4462;SDS011;2244;50.200;8.220;2024-03-25T09:57:47;22.87;;;3.60;;
4462;SDS011;2244;50.200;8.220;2024-03-25T10:00:14;22.73;;;2.30;;
4462;SDS011;2244;50.200;8.220;2024-03-25T10:02:42;20.53;;;2.07;;
4462;SDS011;2244;50.200;8.220;2024-03-25T10:05:10;26.43;;;4.80;;
4462;SDS011;2244;50.200;8.220;2024-03-25T10:07:37;21.00;;;1.87;;
4462;SDS011;2244;50.200;8.220;2024-03-25T10:10:05;27.87;;;2.20;;
4462;SDS011;2244;50.200;8.220;2024-03-25T10:12:33;18.13;;;1.80;;
4462;SDS011;2244;50.200;8.220;2024-03-25T10:15:00;18.40;;;1.60;;
4462;SDS011;2244;50.200;8.220;2024-03-25T10:17:29;19.83;;;1.83;;
4462;SDS011;2244;50.200;8.220;2024-03-25T10:19:57;24.00;;;2.40;;
4462;SDS011;2244;50.200;8.220;2024-03-25T10:22:24;24.83;;;2.87;;
4462;SDS011;2244;50.200;8.220;2024-03-25T10:24:52;19.43;;;1.93;;
4462;SDS011;2244;50.200;8.220;2024-03-25T10:27:22;21.60;;;2.00;;
4462;SDS011;2244;50.200;8.220;2024-03-25T10:29:53;21.03;;;2.10;;
4462;SDS011;2244;50.200;8.220;2024-03-25T10:32:24;18.70;;;1.83;;
4462;SDS011;2244;50.200;8.220;2024-03-25T10:34:53;25.17;;;2.00;;
4462;SDS011;2244;50.200;8.220;2024-03-25T10:37:22;20.47;;;2.07;;
4462;SDS011;2244;50.200;8.220;2024-03-25T10:39:53;18.10;;;1.80;;
4462;SDS011;2244;50.200;8.220;2024-03-25T10:42:20;19.00;;;2.17;;
4462;SDS011;2244;50.200;8.220;2024-03-25T10:44:49;22.27;;;2.20;;
4462;SDS011;2244;50.200;8.220;2024-03-25T10:47:21;19.37;;;2.20;;
4462;SDS011;2244;50.200;8.220;2024-03-25T10:49:58;19.70;;;2.60;;
4462;SDS011;2244;50.200;8.220;2024-03-25T10:52:26;18.57;;;2.10;;
4462;SDS011;2244;50.200;8.220;2024-03-25T10:54:55;18.57;;;1.80;;
4462;SDS011;2244;50.200;8.220;2024-03-25T10:57:23;19.00;;;2.10;;
4462;SDS011;2244;50.200;8.220;2024-03-25T10:59:50;18.53;;;1.83;;
4462;SDS011;2244;50.200;8.220;2024-03-25T11:02:18;20.50;;;1.83;;
4462;SDS011;2244;50.200;8.220;2024-03-25T11:04:46;20.80;;;2.90;;
4462;SDS011;2244;50.200;8.220;2024-03-25T11:07:15;18.90;;;1.77;;
4462;SDS011;2244;50.200;8.220;2024-03-25T11:09:43;16.47;;;1.87;;
4462;SDS011;2244;50.200;8.220;2024-03-25T11:12:10;16.87;;;1.77;;
4462;SDS011;2244;50.200;8.220;2024-03-25T11:14:38;19.50;;;1.83;;
4462;SDS011;2244;50.200;8.220;2024-03-25T11:17:15;18.47;;;2.20;;
4462;SDS011;2244;50.200;8.220;2024-03-25T11:19:42;17.90;;;1.80;;
4462;SDS011;2244;50.200;8.220;2024-03-25T11:22:10;18.97;;;1.93;;
4462;SDS011;2244;50.200;8.220;2024-03-25T11:24:43;18.97;;;1.70;;
4462;SDS011;2244;50.200;8.220;2024-03-25T11:27:07;18.00;;;2.00;;
4462;SDS011;2244;50.200;8.220;2024-03-25T11:29:35;20.23;;;1.83;;
4462;SDS011;2244;50.200;8.220;2024-03-25T11:32:03;18.47;;;1.87;;
4462;SDS011;2244;50.200;8.220;2024-03-25T11:34:31;20.10;;;2.33;;
4462;SDS011;2244;50.200;8.220;2024-03-25T11:36:58;18.90;;;1.90;;
4462;SDS011;2244;50.200;8.220;2024-03-25T11:39:26;17.47;;;1.70;;
4462;SDS011;2244;50.200;8.220;2024-03-25T11:41:55;17.63;;;1.50;;
4462;SDS011;2244;50.200;8.220;2024-03-25T11:44:22;17.97;;;1.90;;
4462;SDS011;2244;50.200;8.220;2024-03-25T11:46:52;20.33;;;2.13;;
4462;SDS011;2244;50.200;8.220;2024-03-25T11:49:21;17.27;;;2.30;;
4462;SDS011;2244;50.200;8.220;2024-03-25T11:51:48;16.30;;;1.70;;
4462;SDS011;2244;50.200;8.220;2024-03-25T11:54:16;16.07;;;2.03;;
4462;SDS011;2244;50.200;8.220;2024-03-25T11:56:43;16.80;;;1.97;;
4462;SDS011;2244;50.200;8.220;2024-03-25T11:59:11;18.87;;;2.30;;
4462;SDS011;2244;50.200;8.220;2024-03-25T12:01:39;18.47;;;2.67;;
4462;SDS011;2244;50.200;8.220;2024-03-25T12:04:09;18.27;;;2.43;;
4462;SDS011;2244;50.200;8.220;2024-03-25T12:06:37;17.20;;;1.90;;
4462;SDS011;2244;50.200;8.220;2024-03-25T12:09:05;18.23;;;2.53;;
4462;SDS011;2244;50.200;8.220;2024-03-25T12:11:50;16.40;;;2.00;;
4462;SDS011;2244;50.200;8.220;2024-03-25T12:14:18;16.00;;;1.80;;
4462;SDS011;2244;50.200;8.220;2024-03-25T12:16:46;18.13;;;1.87;;
4462;SDS011;2244;50.200;8.220;2024-03-25T12:19:15;17.57;;;1.90;;
4462;SDS011;2244;50.200;8.220;2024-03-25T12:21:45;17.37;;;1.60;;
4462;SDS011;2244;50.200;8.220;2024-03-25T12:24:12;17.70;;;2.10;;
4462;SDS011;2244;50.200;8.220;2024-03-25T12:26:40;17.13;;;2.03;;
4462;SDS011;2244;50.200;8.220;2024-03-25T12:29:07;18.40;;;2.20;;
4462;SDS011;2244;50.200;8.220;2024-03-25T12:31:35;18.40;;;2.00;;
4462;SDS011;2244;50.200;8.220;2024-03-25T12:34:09;17.40;;;2.10;;
4462;SDS011;2244;50.200;8.220;2024-03-25T12:36:35;17.80;;;2.20;;
4462;SDS011;2244;50.200;8.220;2024-03-25T12:39:01;17.27;;;1.80;;
4462;SDS011;2244;50.200;8.220;2024-03-25T12:41:28;17.70;;;1.50;;
4462;SDS011;2244;50.200;8.220;2024-03-25T12:43:56;19.20;;;2.00;;
4462;SDS011;2244;50.200;8.220;2024-03-25T12:46:23;20.10;;;2.20;;
4462;SDS011;2244;50.200;8.220;2024-03-25T12:48:51;17.33;;;1.70;;
4462;SDS011;2244;50.200;8.220;2024-03-25T12:51:19;18.30;;;2.00;;
4462;SDS011;2244;50.200;8.220;2024-03-25T12:53:46;17.80;;;1.80;;
4462;SDS011;2244;50.200;8.220;2024-03-25T12:56:13;18.00;;;1.60;;
4462;SDS011;2244;50.200;8.220;2024-03-25T12:58:41;17.40;;;1.70;;
4462;SDS011;2244;50.200;8.220;2024-03-25T13:01:08;18.33;;;1.50;;
4462;SDS011;2244;50.200;8.220;2024-03-25T13:03:36;17.40;;;1.70;;
4462;SDS011;2244;50.200;8.220;2024-03-25T13:06:03;19.80;;;1.83;;
4462;SDS011;2244;50.200;8.220;2024-03-25T13:08:31;17.60;;;1.77;;
4462;SDS011;2244;50.200;8.220;2024-03-25T13:10:58;17.80;;;1.57;;
4462;SDS011;2244;50.200;8.220;2024-03-25T13:13:26;17.10;;;1.37;;
4462;SDS011;2244;50.200;8.220;2024-03-25T13:15:53;20.13;;;1.80;;
4462;SDS011;2244;50.200;8.220;2024-03-25T13:18:21;18.03;;;1.70;;
4462;SDS011;2244;50.200;8.220;2024-03-25T13:20:48;18.67;;;1.60;;
4462;SDS011;2244;50.200;8.220;2024-03-25T13:23:16;19.83;;;1.80;;
4462;SDS011;2244;50.200;8.220;2024-03-25T13:25:43;17.70;;;1.57;;
4462;SDS011;2244;50.200;8.220;2024-03-25T13:28:10;20.77;;;1.87;;
4462;SDS011;2244;50.200;8.220;2024-03-25T13:30:38;20.23;;;1.87;;
4462;SDS011;2244;50.200;8.220;2024-03-25T13:33:05;17.60;;;2.07;;
4462;SDS011;2244;50.200;8.220;2024-03-25T13:35:33;19.20;;;2.07;;
4462;SDS011;2244;50.200;8.220;2024-03-25T13:38:00;21.40;;;2.20;;
4462;SDS011;2244;50.200;8.220;2024-03-25T13:40:28;17.57;;;1.80;;
4462;SDS011;2244;50.200;8.220;2024-03-25T13:42:55;18.80;;;2.07;;
4462;SDS011;2244;50.200;8.220;2024-03-25T13:45:23;20.67;;;3.23;;
4462;SDS011;2244;50.200;8.220;2024-03-25T13:47:50;18.87;;;2.03;;
4462;SDS011;2244;50.200;8.220;2024-03-25T13:50:18;19.97;;;2.27;;
4462;SDS011;2244;50.200;8.220;2024-03-25T13:52:47;18.03;;;2.13;;
4462;SDS011;2244;50.200;8.220;2024-03-25T13:55:14;21.93;;;2.20;;
4462;SDS011;2244;50.200;8.220;2024-03-25T13:57:44;18.60;;;2.10;;
4462;SDS011;2244;50.200;8.220;2024-03-25T14:00:11;17.03;;;2.20;;
4462;SDS011;2244;50.200;8.220;2024-03-25T14:02:40;21.27;;;2.47;;
4462;SDS011;2244;50.200;8.220;2024-03-25T14:05:07;17.87;;;1.83;;
4462;SDS011;2244;50.200;8.220;2024-03-25T14:07:34;17.37;;;1.70;;
4462;SDS011;2244;50.200;8.220;2024-03-25T14:10:02;21.87;;;2.17;;
4462;SDS011;2244;50.200;8.220;2024-03-25T14:12:30;17.80;;;1.90;;
4462;SDS011;2244;50.200;8.220;2024-03-25T14:14:57;19.77;;;2.20;;
4462;SDS011;2244;50.200;8.220;2024-03-25T14:17:25;20.33;;;2.53;;
4462;SDS011;2244;50.200;8.220;2024-03-25T14:19:53;19.57;;;2.47;;
4462;SDS011;2244;50.200;8.220;2024-03-25T14:22:21;20.80;;;2.53;;
4462;SDS011;2244;50.200;8.220;2024-03-25T14:24:48;20.13;;;2.10;;
4462;SDS011;2244;50.200;8.220;2024-03-25T14:27:16;18.70;;;2.90;;
4462;SDS011;2244;50.200;8.220;2024-03-25T14:29:43;18.40;;;2.30;;
4462;SDS011;2244;50.200;8.220;2024-03-25T14:32:11;16.87;;;1.80;;
4462;SDS011;2244;50.200;8.220;2024-03-25T14:34:38;19.33;;;1.90;;
4462;SDS011;2244;50.200;8.220;2024-03-25T14:37:05;17.20;;;1.80;;
4462;SDS011;2244;50.200;8.220;2024-03-25T14:39:33;24.13;;;2.20;;
4462;SDS011;2244;50.200;8.220;2024-03-25T14:42:00;21.50;;;2.03;;
4462;SDS011;2244;50.200;8.220;2024-03-25T14:44:29;18.57;;;2.73;;
4462;SDS011;2244;50.200;8.220;2024-03-25T14:46:56;24.53;;;17.43;;
4462;SDS011;2244;50.200;8.220;2024-03-25T14:49:26;18.17;;;1.90;;
4462;SDS011;2244;50.200;8.220;2024-03-25T14:51:54;17.67;;;2.07;;
4462;SDS011;2244;50.200;8.220;2024-03-25T14:54:21;21.37;;;2.57;;
4462;SDS011;2244;50.200;8.220;2024-03-25T14:56:49;20.87;;;2.70;;
4462;SDS011;2244;50.200;8.220;2024-03-25T14:59:16;19.50;;;2.23;;
4462;SDS011;2244;50.200;8.220;2024-03-25T15:01:44;19.30;;;3.20;;
4462;SDS011;2244;50.200;8.220;2024-03-25T15:04:11;20.07;;;2.10;;